Terminal Aerodrome Forecast
Issued by NWS Chicago, IL

Home | Current Version | Previous Version | Graphics & Text | Print | Product List | Glossary On
Versions: 1 2 3 4 5 6 7 8 9 10 11 12 13 14 15 16 17 18 19 20 21 22 23 24 25 26 27 28 29 30 31
000
FTUS43 KLOT 250859 AAA
TAFRFD
TAF AMD
KRFD 250859Z 2509/2606 23004KT P6SM SCT050 BKN250
     FM251500 29007KT P6SM SCT030 SCT250
     FM251800 35007KT P6SM BKN250
     FM260130 VRB03KT P6SM BKN250=

USA.gov is the U.S. government's official web portal to all federal, state and local government web resources and services.